sensor_id;sensor_type;location;lat;lon;timestamp;temperature;humidity
43963;DHT22;29622;45.534;9.242;2023-05-08T00:00:56;22.80;45.30
43963;DHT22;29622;45.534;9.242;2023-05-08T00:05:57;22.80;45.30
43963;DHT22;29622;45.534;9.242;2023-05-08T00:10:58;23.00;45.20
43963;DHT22;29622;45.534;9.242;2023-05-08T00:15:58;23.20;45.00
43963;DHT22;29622;45.534;9.242;2023-05-08T00:20:59;23.30;45.00
43963;DHT22;29622;45.534;9.242;2023-05-08T00:26:00;23.20;44.90
43963;DHT22;29622;45.534;9.242;2023-05-08T00:31:01;23.20;45.00
43963;DHT22;29622;45.534;9.242;2023-05-08T00:36:02;23.30;45.10
43963;DHT22;29622;45.534;9.242;2023-05-08T00:41:03;23.20;45.10
43963;DHT22;29622;45.534;9.242;2023-05-08T00:46:04;23.10;45.30
43963;DHT22;29622;45.534;9.242;2023-05-08T00:51:07;23.00;45.40
43963;DHT22;29622;45.534;9.242;2023-05-08T00:56:13;22.90;45.70
43963;DHT22;29622;45.534;9.242;2023-05-08T01:01:14;22.90;46.00
43963;DHT22;29622;45.534;9.242;2023-05-08T01:06:15;22.80;46.20
43963;DHT22;29622;45.534;9.242;2023-05-08T01:11:27;22.80;46.50
43963;DHT22;29622;45.534;9.242;2023-05-08T01:22:01;22.70;47.00
43963;DHT22;29622;45.534;9.242;2023-05-08T01:32:39;22.70;47.30
43963;DHT22;29622;45.534;9.242;2023-05-08T01:48:14;22.30;47.90
43963;DHT22;29622;45.534;9.242;2023-05-08T01:53:23;22.20;48.20
43963;DHT22;29622;45.534;9.242;2023-05-08T01:58:25;22.20;48.50
43963;DHT22;29622;45.534;9.242;2023-05-08T02:03:32;22.40;48.20
43963;DHT22;29622;45.534;9.242;2023-05-08T02:08:35;22.50;48.10
43963;DHT22;29622;45.534;9.242;2023-05-08T02:13:38;22.60;48.10
43963;DHT22;29622;45.534;9.242;2023-05-08T02:18:43;22.50;48.10
43963;DHT22;29622;45.534;9.242;2023-05-08T02:23:47;22.50;48.40
43963;DHT22;29622;45.534;9.242;2023-05-08T02:28:49;22.40;48.50
43963;DHT22;29622;45.534;9.242;2023-05-08T02:33:50;22.30;48.70
43963;DHT22;29622;45.534;9.242;2023-05-08T02:38:53;22.20;49.00
43963;DHT22;29622;45.534;9.242;2023-05-08T02:43:57;22.20;49.20
43963;DHT22;29622;45.534;9.242;2023-05-08T02:54:09;22.00;49.50
43963;DHT22;29622;45.534;9.242;2023-05-08T02:59:19;21.70;49.90
43963;DHT22;29622;45.534;9.242;2023-05-08T03:04:25;21.40;50.30
43963;DHT22;29622;45.534;9.242;2023-05-08T03:09:39;21.20;50.80
43963;DHT22;29622;45.534;9.242;2023-05-08T03:20:05;20.70;51.50
43963;DHT22;29622;45.534;9.242;2023-05-08T03:25:08;20.50;52.30
43963;DHT22;29622;45.534;9.242;2023-05-08T03:30:11;20.30;52.40
43963;DHT22;29622;45.534;9.242;2023-05-08T03:35:15;20.20;52.70
43963;DHT22;29622;45.534;9.242;2023-05-08T03:40:16;20.10;53.00
43963;DHT22;29622;45.534;9.242;2023-05-08T03:45:19;20.00;53.30
43963;DHT22;29622;45.534;9.242;2023-05-08T03:50:20;20.00;53.70
43963;DHT22;29622;45.534;9.242;2023-05-08T03:55:22;20.00;54.00
43963;DHT22;29622;45.534;9.242;2023-05-08T04:00:34;20.00;54.30
43963;DHT22;29622;45.534;9.242;2023-05-08T04:05:42;20.00;54.50
43963;DHT22;29622;45.534;9.242;2023-05-08T04:11:11;20.00;54.50
43963;DHT22;29622;45.534;9.242;2023-05-08T04:16:23;20.00;54.80
43963;DHT22;29622;45.534;9.242;2023-05-08T04:21:28;20.10;54.80
43963;DHT22;29622;45.534;9.242;2023-05-08T04:26:31;20.10;54.70
43963;DHT22;29622;45.534;9.242;2023-05-08T04:31:34;20.00;54.90
43963;DHT22;29622;45.534;9.242;2023-05-08T04:36:36;20.00;55.20
43963;DHT22;29622;45.534;9.242;2023-05-08T04:41:38;20.00;55.40
43963;DHT22;29622;45.534;9.242;2023-05-08T04:46:40;19.90;55.60
43963;DHT22;29622;45.534;9.242;2023-05-08T04:51:40;19.90;55.80
43963;DHT22;29622;45.534;9.242;2023-05-08T04:56:41;19.90;56.00
43963;DHT22;29622;45.534;9.242;2023-05-08T05:01:44;20.10;55.90
43963;DHT22;29622;45.534;9.242;2023-05-08T05:06:44;20.10;55.70
43963;DHT22;29622;45.534;9.242;2023-05-08T05:11:46;20.20;55.60
43963;DHT22;29622;45.534;9.242;2023-05-08T05:16:47;20.10;55.70
43963;DHT22;29622;45.534;9.242;2023-05-08T05:21:48;20.10;55.70
43963;DHT22;29622;45.534;9.242;2023-05-08T05:26:49;20.10;55.70
43963;DHT22;29622;45.534;9.242;2023-05-08T05:31:50;20.10;55.70
43963;DHT22;29622;45.534;9.242;2023-05-08T05:36:51;20.20;55.80
43963;DHT22;29622;45.534;9.242;2023-05-08T05:41:51;20.20;55.80
43963;DHT22;29622;45.534;9.242;2023-05-08T05:46:53;20.10;55.80
43963;DHT22;29622;45.534;9.242;2023-05-08T05:51:54;20.10;55.80
43963;DHT22;29622;45.534;9.242;2023-05-08T05:56:55;20.10;55.90
43963;DHT22;29622;45.534;9.242;2023-05-08T06:01:56;20.10;56.30
43963;DHT22;29622;45.534;9.242;2023-05-08T06:06:57;20.10;55.90
43963;DHT22;29622;45.534;9.242;2023-05-08T06:11:58;20.00;56.00
43963;DHT22;29622;45.534;9.242;2023-05-08T06:16:59;20.00;56.10
43963;DHT22;29622;45.534;9.242;2023-05-08T06:22:00;20.00;56.30
43963;DHT22;29622;45.534;9.242;2023-05-08T06:27:01;20.00;56.50
43963;DHT22;29622;45.534;9.242;2023-05-08T06:32:03;20.00;56.60
43963;DHT22;29622;45.534;9.242;2023-05-08T06:37:06;20.00;56.70
43963;DHT22;29622;45.534;9.242;2023-05-08T06:42:07;20.10;56.80
43963;DHT22;29622;45.534;9.242;2023-05-08T06:47:11;20.10;56.70
43963;DHT22;29622;45.534;9.242;2023-05-08T06:52:12;20.10;56.70
43963;DHT22;29622;45.534;9.242;2023-05-08T06:57:13;20.10;56.80
43963;DHT22;29622;45.534;9.242;2023-05-08T07:02:14;20.20;57.00
43963;DHT22;29622;45.534;9.242;2023-05-08T07:07:16;20.20;57.00
43963;DHT22;29622;45.534;9.242;2023-05-08T07:12:17;20.30;57.00
43963;DHT22;29622;45.534;9.242;2023-05-08T07:17:18;20.30;57.00
43963;DHT22;29622;45.534;9.242;2023-05-08T07:22:18;20.40;57.10
43963;DHT22;29622;45.534;9.242;2023-05-08T07:27:20;20.50;57.00
43963;DHT22;29622;45.534;9.242;2023-05-08T07:32:21;20.70;57.00
43963;DHT22;29622;45.534;9.242;2023-05-08T07:37:22;20.80;56.90
43963;DHT22;29622;45.534;9.242;2023-05-08T07:42:22;20.90;56.90
43963;DHT22;29622;45.534;9.242;2023-05-08T07:47:23;21.00;56.90
43963;DHT22;29622;45.534;9.242;2023-05-08T07:52:23;21.10;56.70
43963;DHT22;29622;45.534;9.242;2023-05-08T07:57:41;21.20;56.70
43963;DHT22;29622;45.534;9.242;2023-05-08T08:02:43;21.40;56.50
43963;DHT22;29622;45.534;9.242;2023-05-08T08:07:44;21.50;56.10
43963;DHT22;29622;45.534;9.242;2023-05-08T08:12:44;21.70;55.90
43963;DHT22;29622;45.534;9.242;2023-05-08T08:17:45;21.90;55.60
43963;DHT22;29622;45.534;9.242;2023-05-08T08:22:46;22.00;55.30
43963;DHT22;29622;45.534;9.242;2023-05-08T08:27:46;22.20;54.90
43963;DHT22;29622;45.534;9.242;2023-05-08T08:32:47;22.40;54.60
43963;DHT22;29622;45.534;9.242;2023-05-08T08:37:51;22.40;54.30
43963;DHT22;29622;45.534;9.242;2023-05-08T08:42:52;22.50;54.30
43963;DHT22;29622;45.534;9.242;2023-05-08T08:47:55;22.50;54.00
43963;DHT22;29622;45.534;9.242;2023-05-08T08:58:14;22.60;53.70
43963;DHT22;29622;45.534;9.242;2023-05-08T09:03:17;22.80;53.50
43963;DHT22;29622;45.534;9.242;2023-05-08T09:08:18;23.00;53.10
43963;DHT22;29622;45.534;9.242;2023-05-08T09:13:19;23.20;52.70
43963;DHT22;29622;45.534;9.242;2023-05-08T09:18:20;23.30;52.40
43963;DHT22;29622;45.534;9.242;2023-05-08T09:23:21;23.30;52.30
43963;DHT22;29622;45.534;9.242;2023-05-08T09:28:23;23.40;52.10
43963;DHT22;29622;45.534;9.242;2023-05-08T09:33:28;23.50;51.80
43963;DHT22;29622;45.534;9.242;2023-05-08T09:38:33;23.60;51.60
43963;DHT22;29622;45.534;9.242;2023-05-08T09:43:34;23.70;51.40
43963;DHT22;29622;45.534;9.242;2023-05-08T09:48:38;23.80;51.00
43963;DHT22;29622;45.534;9.242;2023-05-08T09:53:39;24.00;50.70
43963;DHT22;29622;45.534;9.242;2023-05-08T09:58:41;24.10;50.40
43963;DHT22;29622;45.534;9.242;2023-05-08T10:03:49;24.30;50.20
43963;DHT22;29622;45.534;9.242;2023-05-08T10:09:14;24.40;49.80
43963;DHT22;29622;45.534;9.242;2023-05-08T10:14:15;24.50;49.40
43963;DHT22;29622;45.534;9.242;2023-05-08T10:19:18;24.60;49.20
43963;DHT22;29622;45.534;9.242;2023-05-08T10:24:19;24.60;49.10
43963;DHT22;29622;45.534;9.242;2023-05-08T10:29:27;24.60;49.00
43963;DHT22;29622;45.534;9.242;2023-05-08T10:34:31;24.60;48.90
43963;DHT22;29622;45.534;9.242;2023-05-08T10:39:33;24.70;48.80
43963;DHT22;29622;45.534;9.242;2023-05-08T10:44:34;24.90;48.70
43963;DHT22;29622;45.534;9.242;2023-05-08T10:55:22;25.10;47.90
43963;DHT22;29622;45.534;9.242;2023-05-08T11:00:24;25.20;47.70
43963;DHT22;29622;45.534;9.242;2023-05-08T11:05:25;25.30;47.60
43963;DHT22;29622;45.534;9.242;2023-05-08T11:10:31;25.40;47.50
43963;DHT22;29622;45.534;9.242;2023-05-08T11:15:39;25.40;47.10
43963;DHT22;29622;45.534;9.242;2023-05-08T11:20:52;25.40;46.90
43963;DHT22;29622;45.534;9.242;2023-05-08T11:26:01;25.40;46.80
43963;DHT22;29622;45.534;9.242;2023-05-08T11:31:04;25.40;46.60
43963;DHT22;29622;45.534;9.242;2023-05-08T11:36:19;25.50;46.60
43963;DHT22;29622;45.534;9.242;2023-05-08T11:41:22;25.50;46.30
43963;DHT22;29622;45.534;9.242;2023-05-08T11:46:37;25.40;46.40
43963;DHT22;29622;45.534;9.242;2023-05-08T11:51:39;25.40;46.20
43963;DHT22;29622;45.534;9.242;2023-05-08T11:56:51;25.40;46.30
43963;DHT22;29622;45.534;9.242;2023-05-08T12:01:53;25.40;46.00
43963;DHT22;29622;45.534;9.242;2023-05-08T12:06:56;25.30;46.10
43963;DHT22;29622;45.534;9.242;2023-05-08T12:11:58;25.20;46.10
43963;DHT22;29622;45.534;9.242;2023-05-08T12:17:01;25.10;46.10
43963;DHT22;29622;45.534;9.242;2023-05-08T12:22:01;25.10;46.10
43963;DHT22;29622;45.534;9.242;2023-05-08T12:27:02;25.10;46.10
43963;DHT22;29622;45.534;9.242;2023-05-08T12:32:03;25.10;46.00
43963;DHT22;29622;45.534;9.242;2023-05-08T12:37:06;25.10;45.90
43963;DHT22;29622;45.534;9.242;2023-05-08T12:42:06;25.10;45.80
43963;DHT22;29622;45.534;9.242;2023-05-08T12:47:07;25.10;45.80
43963;DHT22;29622;45.534;9.242;2023-05-08T12:52:11;25.20;45.90
43963;DHT22;29622;45.534;9.242;2023-05-08T12:57:17;25.30;45.60
43963;DHT22;29622;45.534;9.242;2023-05-08T13:02:20;25.50;45.30
43963;DHT22;29622;45.534;9.242;2023-05-08T13:07:23;25.50;45.10
43963;DHT22;29622;45.534;9.242;2023-05-08T13:12:23;25.70;45.10
43963;DHT22;29622;45.534;9.242;2023-05-08T13:17:24;25.80;44.90
43963;DHT22;29622;45.534;9.242;2023-05-08T13:22:25;26.00;44.70
43963;DHT22;29622;45.534;9.242;2023-05-08T13:27:26;26.20;44.70
43963;DHT22;29622;45.534;9.242;2023-05-08T13:32:27;26.30;44.70
43963;DHT22;29622;45.534;9.242;2023-05-08T13:37:28;26.40;44.50
43963;DHT22;29622;45.534;9.242;2023-05-08T13:42:29;26.60;44.30
43963;DHT22;29622;45.534;9.242;2023-05-08T13:47:30;26.70;44.10
43963;DHT22;29622;45.534;9.242;2023-05-08T13:52:31;26.80;44.00
43963;DHT22;29622;45.534;9.242;2023-05-08T13:57:32;26.90;43.70
43963;DHT22;29622;45.534;9.242;2023-05-08T14:02:33;27.00;43.60
43963;DHT22;29622;45.534;9.242;2023-05-08T14:07:34;27.10;43.90
43963;DHT22;29622;45.534;9.242;2023-05-08T14:12:35;27.20;43.30
43963;DHT22;29622;45.534;9.242;2023-05-08T14:17:36;27.30;43.00
43963;DHT22;29622;45.534;9.242;2023-05-08T14:22:37;27.50;42.90
43963;DHT22;29622;45.534;9.242;2023-05-08T14:27:38;27.60;43.10
43963;DHT22;29622;45.534;9.242;2023-05-08T14:32:38;27.70;43.00
43963;DHT22;29622;45.534;9.242;2023-05-08T14:37:39;27.70;42.80
43963;DHT22;29622;45.534;9.242;2023-05-08T14:42:39;27.60;42.80
43963;DHT22;29622;45.534;9.242;2023-05-08T14:47:40;27.60;42.80
43963;DHT22;29622;45.534;9.242;2023-05-08T14:52:41;27.60;42.80
43963;DHT22;29622;45.534;9.242;2023-05-08T14:57:48;27.70;42.60
43963;DHT22;29622;45.534;9.242;2023-05-08T15:02:49;27.70;42.10
43963;DHT22;29622;45.534;9.242;2023-05-08T15:07:50;27.30;42.10
43963;DHT22;29622;45.534;9.242;2023-05-08T15:12:50;27.00;42.20
43963;DHT22;29622;45.534;9.242;2023-05-08T15:17:51;26.70;42.50
43963;DHT22;29622;45.534;9.242;2023-05-08T15:22:52;26.50;42.70
43963;DHT22;29622;45.534;9.242;2023-05-08T15:27:54;26.40;43.00
43963;DHT22;29622;45.534;9.242;2023-05-08T15:32:54;26.30;43.20
43963;DHT22;29622;45.534;9.242;2023-05-08T15:37:55;26.30;43.20
43963;DHT22;29622;45.534;9.242;2023-05-08T15:42:56;26.20;43.20
43963;DHT22;29622;45.534;9.242;2023-05-08T15:47:56;26.00;43.20
43963;DHT22;29622;45.534;9.242;2023-05-08T15:52:57;25.90;43.40
43963;DHT22;29622;45.534;9.242;2023-05-08T15:57:58;25.80;43.50
43963;DHT22;29622;45.534;9.242;2023-05-08T16:02:59;25.70;43.40
43963;DHT22;29622;45.534;9.242;2023-05-08T16:08:00;25.70;43.70
43963;DHT22;29622;45.534;9.242;2023-05-08T16:13:03;25.80;43.60
43963;DHT22;29622;45.534;9.242;2023-05-08T16:18:05;25.80;43.30
43963;DHT22;29622;45.534;9.242;2023-05-08T16:23:06;25.90;43.10
43963;DHT22;29622;45.534;9.242;2023-05-08T16:28:07;25.80;42.90
43963;DHT22;29622;45.534;9.242;2023-05-08T16:33:08;25.70;42.70
43963;DHT22;29622;45.534;9.242;2023-05-08T16:38:09;25.60;42.70
43963;DHT22;29622;45.534;9.242;2023-05-08T16:43:09;25.50;42.70
43963;DHT22;29622;45.534;9.242;2023-05-08T16:48:10;25.40;42.80
43963;DHT22;29622;45.534;9.242;2023-05-08T16:53:11;25.20;42.70
43963;DHT22;29622;45.534;9.242;2023-05-08T16:58:11;25.00;42.90
43963;DHT22;29622;45.534;9.242;2023-05-08T17:03:12;25.00;43.20
43963;DHT22;29622;45.534;9.242;2023-05-08T17:08:13;25.10;43.10
43963;DHT22;29622;45.534;9.242;2023-05-08T17:13:14;25.20;43.10
43963;DHT22;29622;45.534;9.242;2023-05-08T17:18:14;25.30;43.10
43963;DHT22;29622;45.534;9.242;2023-05-08T17:23:15;25.30;42.90
43963;DHT22;29622;45.534;9.242;2023-05-08T17:28:16;25.30;42.90
43963;DHT22;29622;45.534;9.242;2023-05-08T17:33:17;25.30;42.80
43963;DHT22;29622;45.534;9.242;2023-05-08T17:38:17;25.40;42.70
43963;DHT22;29622;45.534;9.242;2023-05-08T17:43:18;25.30;42.60
43963;DHT22;29622;45.534;9.242;2023-05-08T17:48:19;25.30;42.70
43963;DHT22;29622;45.534;9.242;2023-05-08T17:53:20;25.20;42.70
43963;DHT22;29622;45.534;9.242;2023-05-08T17:58:24;25.10;42.70
43963;DHT22;29622;45.534;9.242;2023-05-08T18:03:24;25.00;42.80
43963;DHT22;29622;45.534;9.242;2023-05-08T18:08:25;25.00;42.90
43963;DHT22;29622;45.534;9.242;2023-05-08T18:13:26;25.00;42.90
43963;DHT22;29622;45.534;9.242;2023-05-08T18:18:26;24.90;43.00
43963;DHT22;29622;45.534;9.242;2023-05-08T18:23:27;24.80;43.10
43963;DHT22;29622;45.534;9.242;2023-05-08T18:28:28;24.70;43.10
43963;DHT22;29622;45.534;9.242;2023-05-08T18:33:29;24.60;43.30
43963;DHT22;29622;45.534;9.242;2023-05-08T18:38:31;24.50;43.30
43963;DHT22;29622;45.534;9.242;2023-05-08T18:43:32;24.40;43.30
43963;DHT22;29622;45.534;9.242;2023-05-08T18:48:32;24.20;43.40
43963;DHT22;29622;45.534;9.242;2023-05-08T18:53:34;24.00;43.60
43963;DHT22;29622;45.534;9.242;2023-05-08T18:58:36;23.80;43.80
43963;DHT22;29622;45.534;9.242;2023-05-08T19:03:37;23.80;44.10
43963;DHT22;29622;45.534;9.242;2023-05-08T19:08:38;23.70;44.20
43963;DHT22;29622;45.534;9.242;2023-05-08T19:13:39;23.60;44.40
43963;DHT22;29622;45.534;9.242;2023-05-08T19:18:43;23.60;44.60
43963;DHT22;29622;45.534;9.242;2023-05-08T19:23:43;23.50;44.90
43963;DHT22;29622;45.534;9.242;2023-05-08T19:28:53;23.40;45.10
43963;DHT22;29622;45.534;9.242;2023-05-08T19:33:54;23.30;45.40
43963;DHT22;29622;45.534;9.242;2023-05-08T19:38:59;23.40;45.50
43963;DHT22;29622;45.534;9.242;2023-05-08T19:44:01;23.40;45.50
43963;DHT22;29622;45.534;9.242;2023-05-08T19:49:02;23.40;45.70
43963;DHT22;29622;45.534;9.242;2023-05-08T19:54:03;23.40;45.60
43963;DHT22;29622;45.534;9.242;2023-05-08T19:59:03;23.60;45.60
43963;DHT22;29622;45.534;9.242;2023-05-08T20:04:07;23.60;45.20
43963;DHT22;29622;45.534;9.242;2023-05-08T20:09:08;23.50;45.10
43963;DHT22;29622;45.534;9.242;2023-05-08T20:14:09;23.40;45.00
43963;DHT22;29622;45.534;9.242;2023-05-08T20:19:10;23.40;45.10
43963;DHT22;29622;45.534;9.242;2023-05-08T20:24:11;23.40;45.00
43963;DHT22;29622;45.534;9.242;2023-05-08T20:29:11;23.60;44.90
43963;DHT22;29622;45.534;9.242;2023-05-08T20:34:12;23.60;44.60
43963;DHT22;29622;45.534;9.242;2023-05-08T20:39:13;23.60;44.60
43963;DHT22;29622;45.534;9.242;2023-05-08T20:44:13;23.70;44.70
43963;DHT22;29622;45.534;9.242;2023-05-08T20:49:17;23.60;44.40
43963;DHT22;29622;45.534;9.242;2023-05-08T20:54:17;23.50;44.40
43963;DHT22;29622;45.534;9.242;2023-05-08T20:59:18;23.30;44.50
43963;DHT22;29622;45.534;9.242;2023-05-08T21:04:18;23.10;44.70
43963;DHT22;29622;45.534;9.242;2023-05-08T21:09:19;23.00;44.90
43963;DHT22;29622;45.534;9.242;2023-05-08T21:14:20;22.90;45.30
43963;DHT22;29622;45.534;9.242;2023-05-08T21:19:21;22.90;45.30
43963;DHT22;29622;45.534;9.242;2023-05-08T21:24:21;22.80;45.50
43963;DHT22;29622;45.534;9.242;2023-05-08T21:29:23;22.90;45.60
43963;DHT22;29622;45.534;9.242;2023-05-08T21:34:23;22.80;45.60
43963;DHT22;29622;45.534;9.242;2023-05-08T21:39:24;22.80;45.90
43963;DHT22;29622;45.534;9.242;2023-05-08T21:44:24;22.70;46.00
43963;DHT22;29622;45.534;9.242;2023-05-08T21:49:25;22.60;46.30
43963;DHT22;29622;45.534;9.242;2023-05-08T21:54:26;22.50;46.40
43963;DHT22;29622;45.534;9.242;2023-05-08T21:59:26;22.50;46.60
43963;DHT22;29622;45.534;9.242;2023-05-08T22:04:27;22.40;46.90
43963;DHT22;29622;45.534;9.242;2023-05-08T22:09:28;22.40;47.10
43963;DHT22;29622;45.534;9.242;2023-05-08T22:14:28;22.30;47.30
43963;DHT22;29622;45.534;9.242;2023-05-08T22:19:29;22.40;47.40
43963;DHT22;29622;45.534;9.242;2023-05-08T22:24:30;22.40;47.50
43963;DHT22;29622;45.534;9.242;2023-05-08T22:29:30;22.20;47.70
43963;DHT22;29622;45.534;9.242;2023-05-08T22:34:32;22.20;47.90
43963;DHT22;29622;45.534;9.242;2023-05-08T22:39:32;22.20;48.10
43963;DHT22;29622;45.534;9.242;2023-05-08T22:44:33;22.30;48.20
43963;DHT22;29622;45.534;9.242;2023-05-08T22:49:34;22.20;48.10
43963;DHT22;29622;45.534;9.242;2023-05-08T22:54:35;22.20;48.10
43963;DHT22;29622;45.534;9.242;2023-05-08T22:59:36;22.20;48.10
43963;DHT22;29622;45.534;9.242;2023-05-08T23:04:37;22.20;48.00
43963;DHT22;29622;45.534;9.242;2023-05-08T23:09:39;22.10;47.90
43963;DHT22;29622;45.534;9.242;2023-05-08T23:14:41;21.90;48.00
43963;DHT22;29622;45.534;9.242;2023-05-08T23:19:41;21.80;48.40
43963;DHT22;29622;45.534;9.242;2023-05-08T23:24:42;21.90;48.50
43963;DHT22;29622;45.534;9.242;2023-05-08T23:29:43;22.00;48.30
43963;DHT22;29622;45.534;9.242;2023-05-08T23:34:43;21.90;48.40
43963;DHT22;29622;45.534;9.242;2023-05-08T23:39:44;21.80;48.40
43963;DHT22;29622;45.534;9.242;2023-05-08T23:44:45;21.80;48.50
43963;DHT22;29622;45.534;9.242;2023-05-08T23:49:46;21.80;48.60
43963;DHT22;29622;45.534;9.242;2023-05-08T23:54:46;21.70;48.60
43963;DHT22;29622;45.534;9.242;2023-05-08T23:59:47;21.80;48.80
